sensor_id;sensor_type;location;lat;lon;timestamp;P1;durP1;ratioP1;P2;durP2;ratioP2
11548;SDS011;61444;59.472;18.306;2022-12-22T00:01:07;10.00;;;2.83;;
11548;SDS011;61444;59.472;18.306;2022-12-22T00:03:35;10.90;;;2.87;;
11548;SDS011;61444;59.472;18.306;2022-12-22T00:06:02;11.03;;;2.73;;
11548;SDS011;61444;59.472;18.306;2022-12-22T00:08:28;8.27;;;2.93;;
11548;SDS011;61444;59.472;18.306;2022-12-22T00:10:56;7.57;;;2.77;;
11548;SDS011;61444;59.472;18.306;2022-12-22T00:13:22;13.97;;;3.07;;
11548;SDS011;61444;59.472;18.306;2022-12-22T00:15:48;15.50;;;3.23;;
11548;SDS011;61444;59.472;18.306;2022-12-22T00:18:15;12.27;;;3.53;;
11548;SDS011;61444;59.472;18.306;2022-12-22T00:20:41;12.53;;;3.00;;
11548;SDS011;61444;59.472;18.306;2022-12-22T00:23:08;9.47;;;3.47;;
11548;SDS011;61444;59.472;18.306;2022-12-22T00:25:34;11.00;;;2.57;;
11548;SDS011;61444;59.472;18.306;2022-12-22T00:28:02;10.43;;;2.73;;
11548;SDS011;61444;59.472;18.306;2022-12-22T00:30:31;8.93;;;2.20;;
11548;SDS011;61444;59.472;18.306;2022-12-22T00:32:58;7.33;;;2.17;;
11548;SDS011;61444;59.472;18.306;2022-12-22T00:35:24;9.03;;;2.23;;
11548;SDS011;61444;59.472;18.306;2022-12-22T00:37:51;7.53;;;2.23;;
11548;SDS011;61444;59.472;18.306;2022-12-22T00:40:18;7.83;;;2.23;;
11548;SDS011;61444;59.472;18.306;2022-12-22T00:42:45;7.57;;;2.37;;
11548;SDS011;61444;59.472;18.306;2022-12-22T00:45:13;11.97;;;2.97;;
11548;SDS011;61444;59.472;18.306;2022-12-22T00:47:40;10.80;;;3.30;;
11548;SDS011;61444;59.472;18.306;2022-12-22T00:50:07;7.73;;;2.30;;
11548;SDS011;61444;59.472;18.306;2022-12-22T00:52:33;6.50;;;2.83;;
11548;SDS011;61444;59.472;18.306;2022-12-22T00:55:00;4.87;;;1.60;;
11548;SDS011;61444;59.472;18.306;2022-12-22T00:57:27;11.00;;;2.60;;
11548;SDS011;61444;59.472;18.306;2022-12-22T00:59:54;9.00;;;2.33;;
11548;SDS011;61444;59.472;18.306;2022-12-22T01:02:23;9.13;;;2.70;;
11548;SDS011;61444;59.472;18.306;2022-12-22T01:04:50;7.23;;;2.00;;
11548;SDS011;61444;59.472;18.306;2022-12-22T01:07:17;6.83;;;1.83;;
11548;SDS011;61444;59.472;18.306;2022-12-22T01:09:45;6.67;;;2.30;;
11548;SDS011;61444;59.472;18.306;2022-12-22T01:12:15;10.93;;;2.57;;
11548;SDS011;61444;59.472;18.306;2022-12-22T01:14:42;8.83;;;2.63;;
11548;SDS011;61444;59.472;18.306;2022-12-22T01:17:09;7.20;;;2.17;;
11548;SDS011;61444;59.472;18.306;2022-12-22T01:19:37;7.93;;;2.23;;
11548;SDS011;61444;59.472;18.306;2022-12-22T01:22:06;5.90;;;1.83;;
11548;SDS011;61444;59.472;18.306;2022-12-22T01:24:32;6.20;;;2.10;;
11548;SDS011;61444;59.472;18.306;2022-12-22T01:26:59;6.57;;;1.93;;
11548;SDS011;61444;59.472;18.306;2022-12-22T01:29:26;4.53;;;1.80;;
11548;SDS011;61444;59.472;18.306;2022-12-22T01:31:52;7.93;;;1.90;;
11548;SDS011;61444;59.472;18.306;2022-12-22T01:34:19;5.13;;;1.97;;
11548;SDS011;61444;59.472;18.306;2022-12-22T01:36:49;8.57;;;2.47;;
11548;SDS011;61444;59.472;18.306;2022-12-22T01:39:15;6.23;;;1.83;;
11548;SDS011;61444;59.472;18.306;2022-12-22T01:41:42;8.93;;;2.10;;
11548;SDS011;61444;59.472;18.306;2022-12-22T01:44:11;7.00;;;2.17;;
11548;SDS011;61444;59.472;18.306;2022-12-22T01:46:39;9.63;;;2.20;;
11548;SDS011;61444;59.472;18.306;2022-12-22T01:49:07;6.43;;;2.03;;
11548;SDS011;61444;59.472;18.306;2022-12-22T01:51:35;7.23;;;2.27;;
11548;SDS011;61444;59.472;18.306;2022-12-22T01:54:02;5.50;;;1.70;;
11548;SDS011;61444;59.472;18.306;2022-12-22T01:56:29;6.63;;;2.17;;
11548;SDS011;61444;59.472;18.306;2022-12-22T01:58:56;6.67;;;2.00;;
11548;SDS011;61444;59.472;18.306;2022-12-22T02:01:23;11.43;;;2.00;;
11548;SDS011;61444;59.472;18.306;2022-12-22T02:03:49;4.87;;;1.47;;
11548;SDS011;61444;59.472;18.306;2022-12-22T02:06:18;5.50;;;1.90;;
11548;SDS011;61444;59.472;18.306;2022-12-22T02:08:49;4.43;;;1.50;;
11548;SDS011;61444;59.472;18.306;2022-12-22T02:11:23;6.83;;;1.90;;
11548;SDS011;61444;59.472;18.306;2022-12-22T02:13:57;5.00;;;1.70;;
11548;SDS011;61444;59.472;18.306;2022-12-22T02:16:33;7.27;;;2.30;;
11548;SDS011;61444;59.472;18.306;2022-12-22T02:19:01;8.00;;;1.47;;
11548;SDS011;61444;59.472;18.306;2022-12-22T02:21:32;7.37;;;1.70;;
11548;SDS011;61444;59.472;18.306;2022-12-22T02:24:06;9.20;;;2.07;;
11548;SDS011;61444;59.472;18.306;2022-12-22T02:26:40;8.40;;;1.67;;
11548;SDS011;61444;59.472;18.306;2022-12-22T02:29:07;9.63;;;1.73;;
11548;SDS011;61444;59.472;18.306;2022-12-22T02:31:36;4.93;;;1.50;;
11548;SDS011;61444;59.472;18.306;2022-12-22T02:34:02;7.97;;;1.67;;
11548;SDS011;61444;59.472;18.306;2022-12-22T02:36:30;4.03;;;1.40;;
11548;SDS011;61444;59.472;18.306;2022-12-22T02:39:01;6.87;;;1.80;;
11548;SDS011;61444;59.472;18.306;2022-12-22T02:41:33;4.90;;;1.30;;
11548;SDS011;61444;59.472;18.306;2022-12-22T02:44:10;6.50;;;1.77;;
11548;SDS011;61444;59.472;18.306;2022-12-22T02:46:43;4.37;;;1.50;;
11548;SDS011;61444;59.472;18.306;2022-12-22T02:49:14;3.30;;;1.30;;
11548;SDS011;61444;59.472;18.306;2022-12-22T02:51:43;5.93;;;2.20;;
11548;SDS011;61444;59.472;18.306;2022-12-22T02:54:11;6.43;;;2.00;;
11548;SDS011;61444;59.472;18.306;2022-12-22T02:56:39;3.13;;;1.23;;
11548;SDS011;61444;59.472;18.306;2022-12-22T02:59:05;6.03;;;1.70;;
11548;SDS011;61444;59.472;18.306;2022-12-22T03:01:33;3.83;;;1.30;;
11548;SDS011;61444;59.472;18.306;2022-12-22T03:04:00;6.47;;;1.50;;
11548;SDS011;61444;59.472;18.306;2022-12-22T03:06:27;6.93;;;1.30;;
11548;SDS011;61444;59.472;18.306;2022-12-22T03:08:53;8.00;;;1.77;;
11548;SDS011;61444;59.472;18.306;2022-12-22T03:11:19;4.63;;;1.53;;
11548;SDS011;61444;59.472;18.306;2022-12-22T03:13:46;6.57;;;1.93;;
11548;SDS011;61444;59.472;18.306;2022-12-22T03:16:12;5.17;;;1.70;;
11548;SDS011;61444;59.472;18.306;2022-12-22T03:18:40;3.00;;;1.10;;
11548;SDS011;61444;59.472;18.306;2022-12-22T03:21:07;8.37;;;1.57;;
11548;SDS011;61444;59.472;18.306;2022-12-22T03:23:33;6.43;;;1.43;;
11548;SDS011;61444;59.472;18.306;2022-12-22T03:26:00;4.73;;;1.33;;
11548;SDS011;61444;59.472;18.306;2022-12-22T03:28:09;7.43;;;1.90;;
11548;SDS011;61444;59.472;18.306;2022-12-22T03:30:18;3.30;;;1.70;;
11548;SDS011;61444;59.472;18.306;2022-12-22T03:32:27;5.10;;;1.43;;
11548;SDS011;61444;59.472;18.306;2022-12-22T03:34:37;7.03;;;1.60;;
11548;SDS011;61444;59.472;18.306;2022-12-22T03:36:46;6.57;;;1.60;;
11548;SDS011;61444;59.472;18.306;2022-12-22T03:38:55;5.30;;;1.50;;
11548;SDS011;61444;59.472;18.306;2022-12-22T03:41:03;8.57;;;2.13;;
11548;SDS011;61444;59.472;18.306;2022-12-22T03:43:13;4.10;;;1.50;;
11548;SDS011;61444;59.472;18.306;2022-12-22T03:45:40;3.97;;;1.63;;
11548;SDS011;61444;59.472;18.306;2022-12-22T03:48:06;6.03;;;1.97;;
11548;SDS011;61444;59.472;18.306;2022-12-22T03:50:16;4.87;;;1.80;;
11548;SDS011;61444;59.472;18.306;2022-12-22T03:52:25;7.40;;;1.40;;
11548;SDS011;61444;59.472;18.306;2022-12-22T03:54:34;5.73;;;1.77;;
11548;SDS011;61444;59.472;18.306;2022-12-22T03:56:44;4.73;;;1.80;;
11548;SDS011;61444;59.472;18.306;2022-12-22T03:58:53;3.33;;;1.47;;
11548;SDS011;61444;59.472;18.306;2022-12-22T04:01:05;4.80;;;1.90;;
11548;SDS011;61444;59.472;18.306;2022-12-22T04:03:14;3.10;;;1.60;;
11548;SDS011;61444;59.472;18.306;2022-12-22T04:05:25;6.10;;;1.60;;
11548;SDS011;61444;59.472;18.306;2022-12-22T04:07:34;5.90;;;1.83;;
11548;SDS011;61444;59.472;18.306;2022-12-22T04:09:42;3.20;;;1.90;;
11548;SDS011;61444;59.472;18.306;2022-12-22T04:12:12;6.00;;;1.70;;
11548;SDS011;61444;59.472;18.306;2022-12-22T04:14:50;6.13;;;1.93;;
11548;SDS011;61444;59.472;18.306;2022-12-22T04:16:59;2.83;;;1.50;;
11548;SDS011;61444;59.472;18.306;2022-12-22T04:19:08;4.93;;;1.73;;
11548;SDS011;61444;59.472;18.306;2022-12-22T04:21:18;3.43;;;1.30;;
11548;SDS011;61444;59.472;18.306;2022-12-22T04:23:27;5.43;;;1.93;;
11548;SDS011;61444;59.472;18.306;2022-12-22T04:25:36;3.50;;;1.57;;
11548;SDS011;61444;59.472;18.306;2022-12-22T04:27:44;5.67;;;1.50;;
11548;SDS011;61444;59.472;18.306;2022-12-22T04:29:53;5.70;;;1.33;;
11548;SDS011;61444;59.472;18.306;2022-12-22T04:32:02;1.40;;;1.10;;
11548;SDS011;61444;59.472;18.306;2022-12-22T04:34:11;5.53;;;1.60;;
11548;SDS011;61444;59.472;18.306;2022-12-22T04:36:22;5.03;;;1.70;;
11548;SDS011;61444;59.472;18.306;2022-12-22T04:38:31;5.50;;;1.60;;
11548;SDS011;61444;59.472;18.306;2022-12-22T04:40:40;4.73;;;1.50;;
11548;SDS011;61444;59.472;18.306;2022-12-22T04:42:49;3.53;;;1.50;;
11548;SDS011;61444;59.472;18.306;2022-12-22T04:44:58;5.37;;;1.60;;
11548;SDS011;61444;59.472;18.306;2022-12-22T04:47:07;4.07;;;1.40;;
11548;SDS011;61444;59.472;18.306;2022-12-22T04:49:16;1.80;;;1.37;;
11548;SDS011;61444;59.472;18.306;2022-12-22T04:51:27;3.53;;;1.60;;
11548;SDS011;61444;59.472;18.306;2022-12-22T04:53:36;2.10;;;1.60;;
11548;SDS011;61444;59.472;18.306;2022-12-22T04:55:45;4.67;;;1.60;;
11548;SDS011;61444;59.472;18.306;2022-12-22T04:57:54;3.63;;;1.20;;
11548;SDS011;61444;59.472;18.306;2022-12-22T05:00:03;2.87;;;1.40;;
11548;SDS011;61444;59.472;18.306;2022-12-22T05:02:12;2.97;;;1.20;;
11548;SDS011;61444;59.472;18.306;2022-12-22T05:04:21;2.37;;;1.10;;
11548;SDS011;61444;59.472;18.306;2022-12-22T05:06:32;3.23;;;1.40;;
11548;SDS011;61444;59.472;18.306;2022-12-22T05:08:41;1.83;;;1.00;;
11548;SDS011;61444;59.472;18.306;2022-12-22T05:10:50;3.33;;;1.33;;
11548;SDS011;61444;59.472;18.306;2022-12-22T05:12:59;4.33;;;1.57;;
11548;SDS011;61444;59.472;18.306;2022-12-22T05:15:08;2.43;;;1.00;;
11548;SDS011;61444;59.472;18.306;2022-12-22T05:17:18;5.27;;;1.37;;
11548;SDS011;61444;59.472;18.306;2022-12-22T05:19:26;2.83;;;1.00;;
11548;SDS011;61444;59.472;18.306;2022-12-22T05:21:38;3.10;;;1.23;;
11548;SDS011;61444;59.472;18.306;2022-12-22T05:23:47;3.23;;;1.50;;
11548;SDS011;61444;59.472;18.306;2022-12-22T05:25:56;0.97;;;0.53;;
11548;SDS011;61444;59.472;18.306;2022-12-22T05:28:05;3.30;;;1.20;;
11548;SDS011;61444;59.472;18.306;2022-12-22T05:30:15;3.30;;;1.30;;
11548;SDS011;61444;59.472;18.306;2022-12-22T05:32:25;2.17;;;1.57;;
11548;SDS011;61444;59.472;18.306;2022-12-22T05:34:34;1.20;;;0.93;;
11548;SDS011;61444;59.472;18.306;2022-12-22T05:36:45;2.57;;;1.30;;
11548;SDS011;61444;59.472;18.306;2022-12-22T05:38:54;3.63;;;1.40;;
11548;SDS011;61444;59.472;18.306;2022-12-22T05:41:03;3.40;;;0.90;;
11548;SDS011;61444;59.472;18.306;2022-12-22T05:43:12;3.60;;;1.50;;
11548;SDS011;61444;59.472;18.306;2022-12-22T05:45:22;3.33;;;1.00;;
11548;SDS011;61444;59.472;18.306;2022-12-22T05:47:31;2.77;;;1.03;;
11548;SDS011;61444;59.472;18.306;2022-12-22T05:49:40;2.83;;;1.37;;
11548;SDS011;61444;59.472;18.306;2022-12-22T05:51:51;1.27;;;0.83;;
11548;SDS011;61444;59.472;18.306;2022-12-22T05:54:01;5.80;;;1.57;;
11548;SDS011;61444;59.472;18.306;2022-12-22T05:56:10;1.83;;;1.10;;
11548;SDS011;61444;59.472;18.306;2022-12-22T05:58:19;2.20;;;1.30;;
11548;SDS011;61444;59.472;18.306;2022-12-22T06:00:29;3.73;;;1.63;;
11548;SDS011;61444;59.472;18.306;2022-12-22T06:02:38;3.57;;;1.50;;
11548;SDS011;61444;59.472;18.306;2022-12-22T06:04:48;4.03;;;1.50;;
11548;SDS011;61444;59.472;18.306;2022-12-22T06:06:58;2.50;;;1.60;;
11548;SDS011;61444;59.472;18.306;2022-12-22T06:09:07;2.77;;;1.40;;
11548;SDS011;61444;59.472;18.306;2022-12-22T06:11:17;2.83;;;1.70;;
11548;SDS011;61444;59.472;18.306;2022-12-22T06:13:26;4.60;;;1.70;;
11548;SDS011;61444;59.472;18.306;2022-12-22T06:15:35;2.87;;;2.03;;
11548;SDS011;61444;59.472;18.306;2022-12-22T06:17:45;3.17;;;1.60;;
11548;SDS011;61444;59.472;18.306;2022-12-22T06:19:54;2.47;;;1.30;;
11548;SDS011;61444;59.472;18.306;2022-12-22T06:22:05;2.10;;;1.37;;
11548;SDS011;61444;59.472;18.306;2022-12-22T06:24:14;3.80;;;1.80;;
11548;SDS011;61444;59.472;18.306;2022-12-22T06:26:23;6.10;;;1.70;;
11548;SDS011;61444;59.472;18.306;2022-12-22T06:28:33;3.30;;;1.90;;
11548;SDS011;61444;59.472;18.306;2022-12-22T06:30:42;2.57;;;1.67;;
11548;SDS011;61444;59.472;18.306;2022-12-22T06:32:51;2.73;;;1.60;;
11548;SDS011;61444;59.472;18.306;2022-12-22T06:35:00;4.37;;;1.90;;
11548;SDS011;61444;59.472;18.306;2022-12-22T06:37:10;6.20;;;1.53;;
11548;SDS011;61444;59.472;18.306;2022-12-22T06:39:19;2.70;;;1.30;;
11548;SDS011;61444;59.472;18.306;2022-12-22T06:41:28;4.33;;;1.80;;
11548;SDS011;61444;59.472;18.306;2022-12-22T06:43:55;2.43;;;1.33;;
11548;SDS011;61444;59.472;18.306;2022-12-22T06:46:04;2.00;;;1.33;;
11548;SDS011;61444;59.472;18.306;2022-12-22T06:48:13;2.47;;;1.40;;
11548;SDS011;61444;59.472;18.306;2022-12-22T06:50:22;4.80;;;2.03;;
11548;SDS011;61444;59.472;18.306;2022-12-22T06:52:33;4.67;;;2.00;;
11548;SDS011;61444;59.472;18.306;2022-12-22T06:54:42;4.60;;;1.73;;
11548;SDS011;61444;59.472;18.306;2022-12-22T06:56:51;5.03;;;1.90;;
11548;SDS011;61444;59.472;18.306;2022-12-22T06:59:00;2.70;;;1.40;;
11548;SDS011;61444;59.472;18.306;2022-12-22T07:01:09;2.03;;;1.53;;
11548;SDS011;61444;59.472;18.306;2022-12-22T07:03:18;5.77;;;1.90;;
11548;SDS011;61444;59.472;18.306;2022-12-22T07:05:27;3.20;;;1.40;;
11548;SDS011;61444;59.472;18.306;2022-12-22T07:07:39;3.07;;;1.47;;
11548;SDS011;61444;59.472;18.306;2022-12-22T07:09:48;3.30;;;1.60;;
11548;SDS011;61444;59.472;18.306;2022-12-22T07:11:56;3.70;;;1.67;;
11548;SDS011;61444;59.472;18.306;2022-12-22T07:14:06;4.07;;;1.60;;
11548;SDS011;61444;59.472;18.306;2022-12-22T07:16:14;2.50;;;1.50;;
11548;SDS011;61444;59.472;18.306;2022-12-22T07:18:23;2.87;;;0.90;;
11548;SDS011;61444;59.472;18.306;2022-12-22T07:20:32;2.43;;;1.33;;
11548;SDS011;61444;59.472;18.306;2022-12-22T07:22:43;4.57;;;1.70;;
11548;SDS011;61444;59.472;18.306;2022-12-22T07:24:52;1.80;;;1.40;;
11548;SDS011;61444;59.472;18.306;2022-12-22T07:27:01;3.60;;;2.00;;
11548;SDS011;61444;59.472;18.306;2022-12-22T07:29:10;2.33;;;1.47;;
11548;SDS011;61444;59.472;18.306;2022-12-22T07:31:19;3.57;;;1.43;;
11548;SDS011;61444;59.472;18.306;2022-12-22T07:33:28;2.47;;;1.63;;
11548;SDS011;61444;59.472;18.306;2022-12-22T07:35:37;3.10;;;1.70;;
11548;SDS011;61444;59.472;18.306;2022-12-22T07:37:47;2.20;;;1.50;;
11548;SDS011;61444;59.472;18.306;2022-12-22T07:39:56;2.37;;;1.80;;
11548;SDS011;61444;59.472;18.306;2022-12-22T07:42:05;3.33;;;1.60;;
11548;SDS011;61444;59.472;18.306;2022-12-22T07:44:32;2.87;;;1.30;;
11548;SDS011;61444;59.472;18.306;2022-12-22T07:46:40;2.90;;;1.57;;
11548;SDS011;61444;59.472;18.306;2022-12-22T07:48:49;2.77;;;1.40;;
11548;SDS011;61444;59.472;18.306;2022-12-22T07:51:16;3.73;;;1.70;;
11548;SDS011;61444;59.472;18.306;2022-12-22T07:53:27;5.50;;;1.67;;
11548;SDS011;61444;59.472;18.306;2022-12-22T07:55:36;2.47;;;1.50;;
11548;SDS011;61444;59.472;18.306;2022-12-22T07:57:44;3.20;;;1.53;;
11548;SDS011;61444;59.472;18.306;2022-12-22T07:59:53;3.63;;;1.70;;
11548;SDS011;61444;59.472;18.306;2022-12-22T08:02:02;7.60;;;1.80;;
11548;SDS011;61444;59.472;18.306;2022-12-22T08:04:12;3.87;;;1.93;;
11548;SDS011;61444;59.472;18.306;2022-12-22T08:06:21;2.83;;;1.50;;
11548;SDS011;61444;59.472;18.306;2022-12-22T08:08:32;4.00;;;1.70;;
11548;SDS011;61444;59.472;18.306;2022-12-22T08:10:41;2.10;;;1.60;;
11548;SDS011;61444;59.472;18.306;2022-12-22T08:12:50;3.10;;;1.47;;
11548;SDS011;61444;59.472;18.306;2022-12-22T08:14:59;2.73;;;1.63;;
11548;SDS011;61444;59.472;18.306;2022-12-22T08:17:08;3.00;;;1.57;;
11548;SDS011;61444;59.472;18.306;2022-12-22T08:19:18;3.87;;;1.80;;
11548;SDS011;61444;59.472;18.306;2022-12-22T08:21:27;2.50;;;1.60;;
11548;SDS011;61444;59.472;18.306;2022-12-22T08:23:37;4.87;;;1.80;;
11548;SDS011;61444;59.472;18.306;2022-12-22T08:25:46;5.27;;;1.80;;
11548;SDS011;61444;59.472;18.306;2022-12-22T08:27:56;3.60;;;1.80;;
11548;SDS011;61444;59.472;18.306;2022-12-22T08:30:06;5.87;;;1.70;;
11548;SDS011;61444;59.472;18.306;2022-12-22T08:32:15;2.30;;;1.63;;
11548;SDS011;61444;59.472;18.306;2022-12-22T08:34:24;5.03;;;1.93;;
11548;SDS011;61444;59.472;18.306;2022-12-22T08:36:34;4.47;;;1.50;;
11548;SDS011;61444;59.472;18.306;2022-12-22T08:38:47;3.57;;;1.67;;
11548;SDS011;61444;59.472;18.306;2022-12-22T08:40:56;5.03;;;1.90;;
11548;SDS011;61444;59.472;18.306;2022-12-22T08:43:06;3.53;;;1.70;;
11548;SDS011;61444;59.472;18.306;2022-12-22T08:45:15;2.33;;;1.40;;
11548;SDS011;61444;59.472;18.306;2022-12-22T08:47:25;4.30;;;1.70;;
11548;SDS011;61444;59.472;18.306;2022-12-22T08:49:34;3.67;;;1.80;;
11548;SDS011;61444;59.472;18.306;2022-12-22T08:51:43;6.23;;;2.10;;
11548;SDS011;61444;59.472;18.306;2022-12-22T08:53:53;3.53;;;1.80;;
11548;SDS011;61444;59.472;18.306;2022-12-22T08:56:12;3.47;;;1.83;;
11548;SDS011;61444;59.472;18.306;2022-12-22T08:58:20;5.20;;;1.80;;
11548;SDS011;61444;59.472;18.306;2022-12-22T09:00:30;4.23;;;1.50;;
11548;SDS011;61444;59.472;18.306;2022-12-22T09:02:38;3.67;;;1.90;;
11548;SDS011;61444;59.472;18.306;2022-12-22T09:04:48;2.47;;;1.47;;
11548;SDS011;61444;59.472;18.306;2022-12-22T09:06:56;3.97;;;1.87;;
11548;SDS011;61444;59.472;18.306;2022-12-22T09:09:08;3.43;;;1.87;;
11548;SDS011;61444;59.472;18.306;2022-12-22T09:11:17;4.50;;;2.13;;
11548;SDS011;61444;59.472;18.306;2022-12-22T09:13:26;7.10;;;2.10;;
11548;SDS011;61444;59.472;18.306;2022-12-22T09:15:35;4.20;;;1.80;;
11548;SDS011;61444;59.472;18.306;2022-12-22T09:17:44;2.90;;;1.50;;
11548;SDS011;61444;59.472;18.306;2022-12-22T09:19:53;4.77;;;1.60;;
11548;SDS011;61444;59.472;18.306;2022-12-22T09:22:03;5.13;;;1.77;;
11548;SDS011;61444;59.472;18.306;2022-12-22T09:24:13;3.90;;;1.40;;
11548;SDS011;61444;59.472;18.306;2022-12-22T09:26:22;4.47;;;1.40;;
11548;SDS011;61444;59.472;18.306;2022-12-22T09:28:33;2.60;;;1.67;;
11548;SDS011;61444;59.472;18.306;2022-12-22T09:30:44;4.43;;;1.87;;
11548;SDS011;61444;59.472;18.306;2022-12-22T09:32:56;5.27;;;1.53;;
11548;SDS011;61444;59.472;18.306;2022-12-22T09:35:05;4.33;;;1.47;;
11548;SDS011;61444;59.472;18.306;2022-12-22T09:37:14;4.97;;;1.60;;
11548;SDS011;61444;59.472;18.306;2022-12-22T09:39:24;4.00;;;1.77;;
11548;SDS011;61444;59.472;18.306;2022-12-22T09:41:35;4.87;;;1.70;;
11548;SDS011;61444;59.472;18.306;2022-12-22T09:43:44;6.47;;;1.73;;
11548;SDS011;61444;59.472;18.306;2022-12-22T09:45:54;5.50;;;1.53;;
11548;SDS011;61444;59.472;18.306;2022-12-22T09:48:04;1.57;;;0.90;;
11548;SDS011;61444;59.472;18.306;2022-12-22T09:50:14;5.20;;;1.53;;
11548;SDS011;61444;59.472;18.306;2022-12-22T09:52:37;6.43;;;1.67;;
11548;SDS011;61444;59.472;18.306;2022-12-22T09:54:50;3.60;;;1.70;;
11548;SDS011;61444;59.472;18.306;2022-12-22T09:56:59;6.47;;;1.40;;
11548;SDS011;61444;59.472;18.306;2022-12-22T09:59:09;6.73;;;1.40;;
11548;SDS011;61444;59.472;18.306;2022-12-22T10:01:28;2.70;;;1.40;;
11548;SDS011;61444;59.472;18.306;2022-12-22T10:03:42;5.47;;;0.90;;
11548;SDS011;61444;59.472;18.306;2022-12-22T10:05:52;3.67;;;1.10;;
11548;SDS011;61444;59.472;18.306;2022-12-22T10:08:07;3.87;;;1.30;;
11548;SDS011;61444;59.472;18.306;2022-12-22T10:10:21;5.20;;;1.50;;
11548;SDS011;61444;59.472;18.306;2022-12-22T10:12:33;4.70;;;1.30;;
11548;SDS011;61444;59.472;18.306;2022-12-22T10:14:42;5.50;;;0.90;;
11548;SDS011;61444;59.472;18.306;2022-12-22T10:17:07;3.47;;;1.10;;
11548;SDS011;61444;59.472;18.306;2022-12-22T10:19:21;5.63;;;1.27;;
11548;SDS011;61444;59.472;18.306;2022-12-22T10:21:30;8.10;;;1.87;;
11548;SDS011;61444;59.472;18.306;2022-12-22T10:23:40;8.27;;;1.57;;
11548;SDS011;61444;59.472;18.306;2022-12-22T10:26:01;8.20;;;1.03;;
11548;SDS011;61444;59.472;18.306;2022-12-22T10:28:34;7.83;;;1.33;;
11548;SDS011;61444;59.472;18.306;2022-12-22T10:30:44;4.20;;;1.27;;
11548;SDS011;61444;59.472;18.306;2022-12-22T10:33:00;4.00;;;1.17;;
11548;SDS011;61444;59.472;18.306;2022-12-22T10:35:09;5.70;;;2.20;;
11548;SDS011;61444;59.472;18.306;2022-12-22T10:37:18;3.33;;;1.50;;
11548;SDS011;61444;59.472;18.306;2022-12-22T10:39:38;4.63;;;1.17;;
11548;SDS011;61444;59.472;18.306;2022-12-22T10:41:49;7.77;;;1.87;;
11548;SDS011;61444;59.472;18.306;2022-12-22T10:44:01;1.97;;;0.80;;
11548;SDS011;61444;59.472;18.306;2022-12-22T10:46:12;6.97;;;1.60;;
11548;SDS011;61444;59.472;18.306;2022-12-22T10:48:24;3.87;;;0.80;;
11548;SDS011;61444;59.472;18.306;2022-12-22T10:50:33;6.30;;;1.40;;
11548;SDS011;61444;59.472;18.306;2022-12-22T10:52:52;2.93;;;1.47;;
11548;SDS011;61444;59.472;18.306;2022-12-22T10:55:14;6.97;;;1.70;;
11548;SDS011;61444;59.472;18.306;2022-12-22T10:57:27;5.23;;;2.67;;
11548;SDS011;61444;59.472;18.306;2022-12-22T10:59:45;2.97;;;1.70;;
11548;SDS011;61444;59.472;18.306;2022-12-22T11:02:00;9.67;;;1.50;;
11548;SDS011;61444;59.472;18.306;2022-12-22T11:04:28;3.60;;;1.00;;
11548;SDS011;61444;59.472;18.306;2022-12-22T11:06:37;5.60;;;1.77;;
11548;SDS011;61444;59.472;18.306;2022-12-22T11:08:46;7.43;;;1.80;;
11548;SDS011;61444;59.472;18.306;2022-12-22T11:10:58;3.67;;;1.97;;
11548;SDS011;61444;59.472;18.306;2022-12-22T11:15:36;4.53;;;1.13;;
11548;SDS011;61444;59.472;18.306;2022-12-22T11:17:47;1.50;;;0.83;;
11548;SDS011;61444;59.472;18.306;2022-12-22T11:20:03;4.83;;;1.23;;
11548;SDS011;61444;59.472;18.306;2022-12-22T11:22:21;2.63;;;1.03;;
11548;SDS011;61444;59.472;18.306;2022-12-22T11:24:34;6.37;;;1.50;;
11548;SDS011;61444;59.472;18.306;2022-12-22T11:26:48;4.90;;;2.10;;
11548;SDS011;61444;59.472;18.306;2022-12-22T11:29:09;2.97;;;1.20;;
11548;SDS011;61444;59.472;18.306;2022-12-22T11:31:25;3.27;;;1.20;;
11548;SDS011;61444;59.472;18.306;2022-12-22T11:33:40;5.80;;;1.40;;
11548;SDS011;61444;59.472;18.306;2022-12-22T11:35:54;5.23;;;1.23;;
11548;SDS011;61444;59.472;18.306;2022-12-22T11:38:05;2.70;;;0.90;;
11548;SDS011;61444;59.472;18.306;2022-12-22T11:40:20;6.07;;;1.30;;
11548;SDS011;61444;59.472;18.306;2022-12-22T11:42:39;2.20;;;1.23;;
11548;SDS011;61444;59.472;18.306;2022-12-22T11:44:54;5.87;;;1.70;;
11548;SDS011;61444;59.472;18.306;2022-12-22T11:47:13;7.03;;;1.50;;
11548;SDS011;61444;59.472;18.306;2022-12-22T11:49:26;6.93;;;1.30;;
11548;SDS011;61444;59.472;18.306;2022-12-22T11:54:13;3.80;;;1.60;;
11548;SDS011;61444;59.472;18.306;2022-12-22T11:56:26;4.90;;;1.40;;
11548;SDS011;61444;59.472;18.306;2022-12-22T11:58:41;4.30;;;1.53;;
11548;SDS011;61444;59.472;18.306;2022-12-22T12:00:59;5.97;;;1.40;;
11548;SDS011;61444;59.472;18.306;2022-12-22T12:08:20;3.80;;;1.40;;
11548;SDS011;61444;59.472;18.306;2022-12-22T12:10:33;6.83;;;1.50;;
11548;SDS011;61444;59.472;18.306;2022-12-22T12:12:45;2.97;;;1.50;;
11548;SDS011;61444;59.472;18.306;2022-12-22T12:14:59;6.13;;;1.13;;
11548;SDS011;61444;59.472;18.306;2022-12-22T12:17:15;6.83;;;1.40;;
11548;SDS011;61444;59.472;18.306;2022-12-22T12:21:56;4.20;;;1.67;;
11548;SDS011;61444;59.472;18.306;2022-12-22T12:24:13;4.07;;;1.60;;
11548;SDS011;61444;59.472;18.306;2022-12-22T12:26:26;3.73;;;1.93;;
11548;SDS011;61444;59.472;18.306;2022-12-22T12:28:39;4.43;;;1.37;;
11548;SDS011;61444;59.472;18.306;2022-12-22T12:30:51;7.57;;;1.87;;
11548;SDS011;61444;59.472;18.306;2022-12-22T12:33:01;6.73;;;2.33;;
11548;SDS011;61444;59.472;18.306;2022-12-22T12:35:20;9.40;;;2.83;;
11548;SDS011;61444;59.472;18.306;2022-12-22T12:37:36;4.60;;;2.30;;
11548;SDS011;61444;59.472;18.306;2022-12-22T12:39:49;7.07;;;2.10;;
11548;SDS011;61444;59.472;18.306;2022-12-22T12:42:03;3.67;;;1.73;;
11548;SDS011;61444;59.472;18.306;2022-12-22T12:44:15;3.67;;;1.77;;
11548;SDS011;61444;59.472;18.306;2022-12-22T12:46:45;3.53;;;1.70;;
11548;SDS011;61444;59.472;18.306;2022-12-22T12:48:59;7.73;;;1.83;;
11548;SDS011;61444;59.472;18.306;2022-12-22T12:53:35;6.70;;;2.33;;
11548;SDS011;61444;59.472;18.306;2022-12-22T12:56:07;6.33;;;2.20;;
11548;SDS011;61444;59.472;18.306;2022-12-22T13:00:41;4.73;;;1.77;;
11548;SDS011;61444;59.472;18.306;2022-12-22T13:03:00;7.83;;;2.03;;
11548;SDS011;61444;59.472;18.306;2022-12-22T13:05:12;4.57;;;2.63;;
11548;SDS011;61444;59.472;18.306;2022-12-22T13:14:57;4.50;;;2.13;;
11548;SDS011;61444;59.472;18.306;2022-12-22T13:19:35;5.87;;;2.30;;
11548;SDS011;61444;59.472;18.306;2022-12-22T13:21:44;7.23;;;2.03;;
11548;SDS011;61444;59.472;18.306;2022-12-22T13:24:01;4.40;;;1.80;;
11548;SDS011;61444;59.472;18.306;2022-12-22T13:26:31;4.17;;;2.07;;
11548;SDS011;61444;59.472;18.306;2022-12-22T13:28:41;7.90;;;2.17;;
11548;SDS011;61444;59.472;18.306;2022-12-22T13:31:06;5.00;;;2.10;;
11548;SDS011;61444;59.472;18.306;2022-12-22T13:33:22;4.87;;;1.97;;
11548;SDS011;61444;59.472;18.306;2022-12-22T13:35:33;6.07;;;2.00;;
11548;SDS011;61444;59.472;18.306;2022-12-22T13:37:52;6.47;;;2.17;;
11548;SDS011;61444;59.472;18.306;2022-12-22T13:40:06;5.27;;;2.00;;
11548;SDS011;61444;59.472;18.306;2022-12-22T13:42:16;4.90;;;1.80;;
11548;SDS011;61444;59.472;18.306;2022-12-22T13:44:27;6.10;;;1.90;;
11548;SDS011;61444;59.472;18.306;2022-12-22T13:46:38;6.67;;;2.30;;
11548;SDS011;61444;59.472;18.306;2022-12-22T13:48:47;6.43;;;2.13;;
11548;SDS011;61444;59.472;18.306;2022-12-22T13:50:58;5.37;;;2.27;;